sensor_id;sensor_type;location;lat;lon;timestamp;P1;durP1;ratioP1;P2;durP2;ratioP2
31390;SDS011;18022;45.492;11.548;2022-07-23T00:00:48;13.63;;;5.00;;
31390;SDS011;18022;45.492;11.548;2022-07-23T00:03:14;8.57;;;4.97;;
31390;SDS011;18022;45.492;11.548;2022-07-23T00:05:40;7.65;;;4.50;;
31390;SDS011;18022;45.492;11.548;2022-07-23T00:08:06;4.95;;;4.47;;
31390;SDS011;18022;45.492;11.548;2022-07-23T00:10:32;8.73;;;4.50;;
31390;SDS011;18022;45.492;11.548;2022-07-23T00:12:58;15.60;;;4.82;;
31390;SDS011;18022;45.492;11.548;2022-07-23T00:15:24;8.10;;;4.75;;
31390;SDS011;18022;45.492;11.548;2022-07-23T00:17:50;9.20;;;4.68;;
31390;SDS011;18022;45.492;11.548;2022-07-23T00:20:16;5.18;;;4.65;;
31390;SDS011;18022;45.492;11.548;2022-07-23T00:22:45;5.63;;;4.95;;
31390;SDS011;18022;45.492;11.548;2022-07-23T00:25:15;11.20;;;5.00;;
31390;SDS011;18022;45.492;11.548;2022-07-23T00:27:41;5.35;;;4.80;;
31390;SDS011;18022;45.492;11.548;2022-07-23T00:30:07;7.78;;;4.40;;
31390;SDS011;18022;45.492;11.548;2022-07-23T00:32:50;5.35;;;4.88;;
31390;SDS011;18022;45.492;11.548;2022-07-23T00:35:21;5.72;;;4.90;;
31390;SDS011;18022;45.492;11.548;2022-07-23T00:37:47;6.07;;;4.80;;
31390;SDS011;18022;45.492;11.548;2022-07-23T00:40:13;6.10;;;4.72;;
31390;SDS011;18022;45.492;11.548;2022-07-23T00:42:39;5.22;;;4.72;;
31390;SDS011;18022;45.492;11.548;2022-07-23T00:45:05;5.38;;;4.82;;
31390;SDS011;18022;45.492;11.548;2022-07-23T00:47:32;5.47;;;4.95;;
31390;SDS011;18022;45.492;11.548;2022-07-23T00:49:58;6.18;;;4.90;;
31390;SDS011;18022;45.492;11.548;2022-07-23T00:52:23;5.30;;;4.75;;
31390;SDS011;18022;45.492;11.548;2022-07-23T00:54:49;11.45;;;5.75;;
31390;SDS011;18022;45.492;11.548;2022-07-23T00:57:15;12.65;;;6.13;;
31390;SDS011;18022;45.492;11.548;2022-07-23T00:59:41;13.32;;;5.45;;
31390;SDS011;18022;45.492;11.548;2022-07-23T01:02:07;8.65;;;6.10;;
31390;SDS011;18022;45.492;11.548;2022-07-23T01:04:33;10.57;;;5.82;;
31390;SDS011;18022;45.492;11.548;2022-07-23T01:06:59;11.73;;;5.38;;
31390;SDS011;18022;45.492;11.548;2022-07-23T01:09:26;8.20;;;5.53;;
31390;SDS011;18022;45.492;11.548;2022-07-23T01:11:52;8.02;;;5.80;;
31390;SDS011;18022;45.492;11.548;2022-07-23T01:14:20;9.10;;;5.63;;
31390;SDS011;18022;45.492;11.548;2022-07-23T01:16:47;12.50;;;6.35;;
31390;SDS011;18022;45.492;11.548;2022-07-23T01:19:14;8.73;;;6.15;;
31390;SDS011;18022;45.492;11.548;2022-07-23T01:21:41;7.07;;;6.20;;
31390;SDS011;18022;45.492;11.548;2022-07-23T01:24:09;7.15;;;5.95;;
31390;SDS011;18022;45.492;11.548;2022-07-23T01:26:36;9.88;;;6.38;;
31390;SDS011;18022;45.492;11.548;2022-07-23T01:29:03;6.13;;;5.55;;
31390;SDS011;18022;45.492;11.548;2022-07-23T01:31:29;10.17;;;6.23;;
31390;SDS011;18022;45.492;11.548;2022-07-23T01:33:55;7.57;;;5.72;;
31390;SDS011;18022;45.492;11.548;2022-07-23T01:36:21;8.90;;;6.35;;
31390;SDS011;18022;45.492;11.548;2022-07-23T01:38:47;8.70;;;6.35;;
31390;SDS011;18022;45.492;11.548;2022-07-23T01:41:13;12.82;;;6.75;;
31390;SDS011;18022;45.492;11.548;2022-07-23T01:43:39;10.45;;;6.28;;
31390;SDS011;18022;45.492;11.548;2022-07-23T01:46:04;13.35;;;6.63;;
31390;SDS011;18022;45.492;11.548;2022-07-23T01:48:30;7.43;;;6.43;;
31390;SDS011;18022;45.492;11.548;2022-07-23T01:50:56;15.70;;;6.25;;
31390;SDS011;18022;45.492;11.548;2022-07-23T01:53:22;12.55;;;6.20;;
31390;SDS011;18022;45.492;11.548;2022-07-23T01:55:48;9.98;;;6.47;;
31390;SDS011;18022;45.492;11.548;2022-07-23T01:58:13;8.30;;;6.35;;
31390;SDS011;18022;45.492;11.548;2022-07-23T02:00:39;8.00;;;5.72;;
31390;SDS011;18022;45.492;11.548;2022-07-23T02:03:05;12.43;;;6.55;;
31390;SDS011;18022;45.492;11.548;2022-07-23T02:05:31;9.10;;;6.57;;
31390;SDS011;18022;45.492;11.548;2022-07-23T02:07:57;9.93;;;6.20;;
31390;SDS011;18022;45.492;11.548;2022-07-23T02:12:50;10.55;;;6.55;;
31390;SDS011;18022;45.492;11.548;2022-07-23T02:15:15;9.20;;;6.93;;
31390;SDS011;18022;45.492;11.548;2022-07-23T02:17:41;13.38;;;7.75;;
31390;SDS011;18022;45.492;11.548;2022-07-23T02:20:07;9.23;;;6.88;;
31390;SDS011;18022;45.492;11.548;2022-07-23T02:22:34;8.02;;;6.78;;
31390;SDS011;18022;45.492;11.548;2022-07-23T02:25:01;13.07;;;6.82;;
31390;SDS011;18022;45.492;11.548;2022-07-23T02:27:27;11.52;;;6.78;;
31390;SDS011;18022;45.492;11.548;2022-07-23T02:29:53;7.82;;;7.00;;
31390;SDS011;18022;45.492;11.548;2022-07-23T02:32:19;7.45;;;6.75;;
31390;SDS011;18022;45.492;11.548;2022-07-23T02:34:46;9.38;;;6.22;;
31390;SDS011;18022;45.492;11.548;2022-07-23T02:37:12;7.70;;;6.90;;
31390;SDS011;18022;45.492;11.548;2022-07-23T02:39:38;12.55;;;6.53;;
31390;SDS011;18022;45.492;11.548;2022-07-23T02:42:04;9.60;;;7.65;;
31390;SDS011;18022;45.492;11.548;2022-07-23T02:44:30;11.15;;;7.55;;
31390;SDS011;18022;45.492;11.548;2022-07-23T02:46:55;8.05;;;7.35;;
31390;SDS011;18022;45.492;11.548;2022-07-23T02:49:21;8.63;;;7.13;;
31390;SDS011;18022;45.492;11.548;2022-07-23T02:51:47;17.65;;;7.85;;
31390;SDS011;18022;45.492;11.548;2022-07-23T02:54:13;9.45;;;7.15;;
31390;SDS011;18022;45.492;11.548;2022-07-23T02:56:38;9.23;;;8.15;;
31390;SDS011;18022;45.492;11.548;2022-07-23T02:59:04;7.60;;;6.85;;
31390;SDS011;18022;45.492;11.548;2022-07-23T03:01:30;10.48;;;7.28;;
31390;SDS011;18022;45.492;11.548;2022-07-23T03:03:55;11.93;;;7.47;;
31390;SDS011;18022;45.492;11.548;2022-07-23T03:06:21;7.97;;;7.18;;
31390;SDS011;18022;45.492;11.548;2022-07-23T03:08:47;9.20;;;7.50;;
31390;SDS011;18022;45.492;11.548;2022-07-23T03:11:13;8.57;;;7.65;;
31390;SDS011;18022;45.492;11.548;2022-07-23T03:13:40;13.48;;;7.57;;
31390;SDS011;18022;45.492;11.548;2022-07-23T03:16:06;8.43;;;7.63;;
31390;SDS011;18022;45.492;11.548;2022-07-23T03:18:32;9.77;;;7.80;;
31390;SDS011;18022;45.492;11.548;2022-07-23T03:20:59;10.85;;;7.95;;
31390;SDS011;18022;45.492;11.548;2022-07-23T03:23:24;8.55;;;7.65;;
31390;SDS011;18022;45.492;11.548;2022-07-23T03:25:50;9.85;;;7.95;;
31390;SDS011;18022;45.492;11.548;2022-07-23T03:28:17;9.07;;;7.70;;
31390;SDS011;18022;45.492;11.548;2022-07-23T03:30:43;9.63;;;7.53;;
31390;SDS011;18022;45.492;11.548;2022-07-23T03:33:12;11.07;;;8.25;;
31390;SDS011;18022;45.492;11.548;2022-07-23T03:35:42;11.73;;;8.13;;
31390;SDS011;18022;45.492;11.548;2022-07-23T03:38:11;8.95;;;8.00;;
31390;SDS011;18022;45.492;11.548;2022-07-23T03:40:37;10.20;;;8.10;;
31390;SDS011;18022;45.492;11.548;2022-07-23T03:43:03;12.43;;;8.18;;
31390;SDS011;18022;45.492;11.548;2022-07-23T03:45:30;10.43;;;8.25;;
31390;SDS011;18022;45.492;11.548;2022-07-23T03:47:56;14.10;;;8.20;;
31390;SDS011;18022;45.492;11.548;2022-07-23T03:50:21;9.32;;;7.93;;
31390;SDS011;18022;45.492;11.548;2022-07-23T03:52:47;8.38;;;7.32;;
31390;SDS011;18022;45.492;11.548;2022-07-23T03:55:13;9.02;;;8.07;;
31390;SDS011;18022;45.492;11.548;2022-07-23T03:57:39;9.98;;;8.13;;
31390;SDS011;18022;45.492;11.548;2022-07-23T04:00:06;8.93;;;8.02;;
31390;SDS011;18022;45.492;11.548;2022-07-23T04:02:34;11.93;;;7.78;;
31390;SDS011;18022;45.492;11.548;2022-07-23T04:05:00;9.73;;;8.57;;
31390;SDS011;18022;45.492;11.548;2022-07-23T04:07:26;10.55;;;8.52;;
31390;SDS011;18022;45.492;11.548;2022-07-23T04:09:52;11.77;;;9.68;;
31390;SDS011;18022;45.492;11.548;2022-07-23T04:12:18;9.30;;;8.30;;
31390;SDS011;18022;45.492;11.548;2022-07-23T04:14:44;15.02;;;9.32;;
31390;SDS011;18022;45.492;11.548;2022-07-23T04:17:10;11.73;;;8.23;;
31390;SDS011;18022;45.492;11.548;2022-07-23T04:19:36;11.30;;;9.07;;
31390;SDS011;18022;45.492;11.548;2022-07-23T04:22:07;10.43;;;8.90;;
31390;SDS011;18022;45.492;11.548;2022-07-23T04:24:33;14.15;;;8.55;;
31390;SDS011;18022;45.492;11.548;2022-07-23T04:27:00;13.07;;;8.77;;
31390;SDS011;18022;45.492;11.548;2022-07-23T04:29:25;9.80;;;8.25;;
31390;SDS011;18022;45.492;11.548;2022-07-23T04:31:51;8.93;;;8.02;;
31390;SDS011;18022;45.492;11.548;2022-07-23T04:34:17;10.95;;;8.23;;
31390;SDS011;18022;45.492;11.548;2022-07-23T04:36:43;9.20;;;8.30;;
31390;SDS011;18022;45.492;11.548;2022-07-23T04:39:08;9.85;;;8.85;;
31390;SDS011;18022;45.492;11.548;2022-07-23T04:41:34;11.90;;;9.70;;
31390;SDS011;18022;45.492;11.548;2022-07-23T04:44:00;9.25;;;8.23;;
31390;SDS011;18022;45.492;11.548;2022-07-23T04:46:26;13.07;;;8.85;;
31390;SDS011;18022;45.492;11.548;2022-07-23T04:48:52;10.70;;;8.45;;
31390;SDS011;18022;45.492;11.548;2022-07-23T04:51:18;10.88;;;8.70;;
31390;SDS011;18022;45.492;11.548;2022-07-23T04:53:44;12.43;;;8.57;;
31390;SDS011;18022;45.492;11.548;2022-07-23T04:56:10;13.60;;;8.85;;
31390;SDS011;18022;45.492;11.548;2022-07-23T04:58:36;11.02;;;8.65;;
31390;SDS011;18022;45.492;11.548;2022-07-23T05:01:02;10.38;;;8.85;;
31390;SDS011;18022;45.492;11.548;2022-07-23T05:03:27;10.75;;;9.00;;
31390;SDS011;18022;45.492;11.548;2022-07-23T05:05:53;9.70;;;8.35;;
31390;SDS011;18022;45.492;11.548;2022-07-23T05:08:19;9.77;;;8.77;;
31390;SDS011;18022;45.492;11.548;2022-07-23T05:10:45;10.80;;;8.82;;
31390;SDS011;18022;45.492;11.548;2022-07-23T05:13:10;10.00;;;8.32;;
31390;SDS011;18022;45.492;11.548;2022-07-23T05:15:36;10.40;;;7.93;;
31390;SDS011;18022;45.492;11.548;2022-07-23T05:18:02;12.07;;;8.85;;
31390;SDS011;18022;45.492;11.548;2022-07-23T05:20:28;13.40;;;8.85;;
31390;SDS011;18022;45.492;11.548;2022-07-23T05:22:53;14.77;;;8.95;;
31390;SDS011;18022;45.492;11.548;2022-07-23T05:25:19;11.60;;;8.63;;
31390;SDS011;18022;45.492;11.548;2022-07-23T05:27:45;11.32;;;8.45;;
31390;SDS011;18022;45.492;11.548;2022-07-23T05:30:11;12.95;;;8.63;;
31390;SDS011;18022;45.492;11.548;2022-07-23T05:32:37;11.00;;;8.95;;
31390;SDS011;18022;45.492;11.548;2022-07-23T05:35:04;9.63;;;8.60;;
31390;SDS011;18022;45.492;11.548;2022-07-23T05:37:30;14.10;;;8.80;;
31390;SDS011;18022;45.492;11.548;2022-07-23T05:39:59;12.60;;;8.90;;
31390;SDS011;18022;45.492;11.548;2022-07-23T05:42:27;11.52;;;9.25;;
31390;SDS011;18022;45.492;11.548;2022-07-23T05:44:52;17.70;;;9.45;;
31390;SDS011;18022;45.492;11.548;2022-07-23T05:47:18;13.55;;;9.90;;
31390;SDS011;18022;45.492;11.548;2022-07-23T05:49:44;11.85;;;9.60;;
31390;SDS011;18022;45.492;11.548;2022-07-23T05:52:09;11.27;;;8.50;;
31390;SDS011;18022;45.492;11.548;2022-07-23T05:54:35;12.85;;;9.85;;
31390;SDS011;18022;45.492;11.548;2022-07-23T05:57:01;11.80;;;9.40;;
31390;SDS011;18022;45.492;11.548;2022-07-23T05:59:28;13.23;;;9.18;;
31390;SDS011;18022;45.492;11.548;2022-07-23T06:01:53;11.25;;;9.05;;
31390;SDS011;18022;45.492;11.548;2022-07-23T06:04:19;10.88;;;9.40;;
31390;SDS011;18022;45.492;11.548;2022-07-23T06:06:45;11.75;;;9.68;;
31390;SDS011;18022;45.492;11.548;2022-07-23T06:09:11;10.45;;;9.35;;
31390;SDS011;18022;45.492;11.548;2022-07-23T06:11:38;13.52;;;9.82;;
31390;SDS011;18022;45.492;11.548;2022-07-23T06:14:05;11.23;;;10.05;;
31390;SDS011;18022;45.492;11.548;2022-07-23T06:16:30;16.55;;;10.52;;
31390;SDS011;18022;45.492;11.548;2022-07-23T06:18:56;10.63;;;8.68;;
31390;SDS011;18022;45.492;11.548;2022-07-23T06:21:22;12.15;;;10.00;;
31390;SDS011;18022;45.492;11.548;2022-07-23T06:23:48;12.48;;;9.40;;
31390;SDS011;18022;45.492;11.548;2022-07-23T06:26:14;11.43;;;9.05;;
31390;SDS011;18022;45.492;11.548;2022-07-23T06:28:39;14.05;;;10.30;;
31390;SDS011;18022;45.492;11.548;2022-07-23T06:31:05;12.38;;;9.48;;
31390;SDS011;18022;45.492;11.548;2022-07-23T06:33:31;12.68;;;9.50;;
31390;SDS011;18022;45.492;11.548;2022-07-23T06:35:56;10.65;;;9.48;;
31390;SDS011;18022;45.492;11.548;2022-07-23T06:38:22;12.30;;;9.25;;
31390;SDS011;18022;45.492;11.548;2022-07-23T06:40:48;12.18;;;10.70;;
31390;SDS011;18022;45.492;11.548;2022-07-23T06:43:14;10.77;;;9.60;;
31390;SDS011;18022;45.492;11.548;2022-07-23T06:45:39;12.25;;;9.35;;
31390;SDS011;18022;45.492;11.548;2022-07-23T06:48:05;12.55;;;9.15;;
31390;SDS011;18022;45.492;11.548;2022-07-23T06:50:31;12.50;;;10.30;;
31390;SDS011;18022;45.492;11.548;2022-07-23T06:52:57;10.68;;;9.57;;
31390;SDS011;18022;45.492;11.548;2022-07-23T06:55:22;16.17;;;9.73;;
31390;SDS011;18022;45.492;11.548;2022-07-23T06:57:48;12.25;;;10.05;;
31390;SDS011;18022;45.492;11.548;2022-07-23T07:00:14;11.82;;;10.27;;
31390;SDS011;18022;45.492;11.548;2022-07-23T07:02:39;15.88;;;8.82;;
31390;SDS011;18022;45.492;11.548;2022-07-23T07:05:05;11.90;;;8.65;;
31390;SDS011;18022;45.492;11.548;2022-07-23T07:07:32;12.18;;;8.88;;
31390;SDS011;18022;45.492;11.548;2022-07-23T07:09:58;11.30;;;8.80;;
31390;SDS011;18022;45.492;11.548;2022-07-23T07:12:24;11.88;;;8.73;;
31390;SDS011;18022;45.492;11.548;2022-07-23T07:14:49;10.32;;;8.52;;
31390;SDS011;18022;45.492;11.548;2022-07-23T07:17:15;13.45;;;9.05;;
31390;SDS011;18022;45.492;11.548;2022-07-23T07:19:41;13.93;;;8.90;;
31390;SDS011;18022;45.492;11.548;2022-07-23T07:22:07;16.17;;;9.13;;
31390;SDS011;18022;45.492;11.548;2022-07-23T07:24:32;10.85;;;9.02;;
31390;SDS011;18022;45.492;11.548;2022-07-23T07:26:58;9.18;;;8.27;;
31390;SDS011;18022;45.492;11.548;2022-07-23T07:29:23;13.55;;;9.15;;
31390;SDS011;18022;45.492;11.548;2022-07-23T07:31:49;10.30;;;8.75;;
31390;SDS011;18022;45.492;11.548;2022-07-23T07:34:15;14.82;;;9.18;;
31390;SDS011;18022;45.492;11.548;2022-07-23T07:36:41;9.50;;;8.50;;
31390;SDS011;18022;45.492;11.548;2022-07-23T07:39:08;14.70;;;9.07;;
31390;SDS011;18022;45.492;11.548;2022-07-23T07:44:01;11.63;;;8.75;;
31390;SDS011;18022;45.492;11.548;2022-07-23T07:46:27;12.48;;;8.82;;
31390;SDS011;18022;45.492;11.548;2022-07-23T07:48:52;14.90;;;8.98;;
31390;SDS011;18022;45.492;11.548;2022-07-23T07:51:18;11.82;;;9.75;;
31390;SDS011;18022;45.492;11.548;2022-07-23T07:53:44;12.65;;;8.65;;
31390;SDS011;18022;45.492;11.548;2022-07-23T07:56:10;10.93;;;8.98;;
31390;SDS011;18022;45.492;11.548;2022-07-23T07:58:36;10.13;;;8.73;;
31390;SDS011;18022;45.492;11.548;2022-07-23T08:01:01;10.23;;;9.13;;
31390;SDS011;18022;45.492;11.548;2022-07-23T08:03:27;12.23;;;9.30;;
31390;SDS011;18022;45.492;11.548;2022-07-23T08:05:54;15.95;;;8.82;;
31390;SDS011;18022;45.492;11.548;2022-07-23T08:08:19;16.48;;;9.25;;
31390;SDS011;18022;45.492;11.548;2022-07-23T08:10:45;12.13;;;8.57;;
31390;SDS011;18022;45.492;11.548;2022-07-23T08:13:14;10.90;;;8.70;;
31390;SDS011;18022;45.492;11.548;2022-07-23T08:15:41;11.73;;;9.20;;
31390;SDS011;18022;45.492;11.548;2022-07-23T08:18:07;10.40;;;9.45;;
31390;SDS011;18022;45.492;11.548;2022-07-23T08:20:33;11.77;;;8.70;;
31390;SDS011;18022;45.492;11.548;2022-07-23T08:23:02;12.60;;;9.00;;
31390;SDS011;18022;45.492;11.548;2022-07-23T08:25:30;13.38;;;9.77;;
31390;SDS011;18022;45.492;11.548;2022-07-23T08:27:58;15.57;;;9.95;;
31390;SDS011;18022;45.492;11.548;2022-07-23T08:30:25;11.98;;;10.05;;
31390;SDS011;18022;45.492;11.548;2022-07-23T08:32:58;11.77;;;10.57;;
31390;SDS011;18022;45.492;11.548;2022-07-23T08:35:30;12.77;;;10.18;;
31390;SDS011;18022;45.492;11.548;2022-07-23T08:37:57;13.02;;;10.60;;
31390;SDS011;18022;45.492;11.548;2022-07-23T08:40:28;11.05;;;9.93;;
31390;SDS011;18022;45.492;11.548;2022-07-23T08:42:58;13.45;;;10.73;;
31390;SDS011;18022;45.492;11.548;2022-07-23T08:45:26;15.05;;;11.07;;
31390;SDS011;18022;45.492;11.548;2022-07-23T08:47:53;14.90;;;10.98;;
31390;SDS011;18022;45.492;11.548;2022-07-23T08:50:23;16.52;;;10.98;;
31390;SDS011;18022;45.492;11.548;2022-07-23T08:52:50;15.57;;;11.75;;
31390;SDS011;18022;45.492;11.548;2022-07-23T08:55:20;13.63;;;11.52;;
31390;SDS011;18022;45.492;11.548;2022-07-23T08:57:51;19.88;;;11.93;;
31390;SDS011;18022;45.492;11.548;2022-07-23T09:00:18;15.75;;;11.18;;
31390;SDS011;18022;45.492;11.548;2022-07-23T09:02:45;16.48;;;10.57;;
31390;SDS011;18022;45.492;11.548;2022-07-23T09:05:12;15.67;;;11.10;;
31390;SDS011;18022;45.492;11.548;2022-07-23T09:13:35;14.02;;;12.13;;
31390;SDS011;18022;45.492;11.548;2022-07-23T09:18:29;15.27;;;13.02;;
31390;SDS011;18022;45.492;11.548;2022-07-23T09:21:06;18.00;;;13.48;;
31390;SDS011;18022;45.492;11.548;2022-07-23T09:23:44;14.80;;;12.60;;
31390;SDS011;18022;45.492;11.548;2022-07-23T09:28:54;15.65;;;13.07;;
31390;SDS011;18022;45.492;11.548;2022-07-23T09:31:21;15.75;;;13.30;;
31390;SDS011;18022;45.492;11.548;2022-07-23T09:33:47;18.33;;;14.57;;
31390;SDS011;18022;45.492;11.548;2022-07-23T09:36:13;19.83;;;15.30;;
31390;SDS011;18022;45.492;11.548;2022-07-23T09:38:49;21.63;;;16.30;;
31390;SDS011;18022;45.492;11.548;2022-07-23T09:41:15;18.85;;;16.02;;
31390;SDS011;18022;45.492;11.548;2022-07-23T09:43:41;18.02;;;14.63;;
31390;SDS011;18022;45.492;11.548;2022-07-23T09:46:23;14.32;;;12.35;;
31390;SDS011;18022;45.492;11.548;2022-07-23T09:48:52;12.40;;;11.10;;
31390;SDS011;18022;45.492;11.548;2022-07-23T09:51:24;14.32;;;9.35;;
31390;SDS011;18022;45.492;11.548;2022-07-23T09:53:56;10.07;;;9.07;;
31390;SDS011;18022;45.492;11.548;2022-07-23T09:56:22;10.85;;;8.30;;
31390;SDS011;18022;45.492;11.548;2022-07-23T09:58:49;10.52;;;7.32;;
31390;SDS011;18022;45.492;11.548;2022-07-23T10:01:17;8.50;;;7.35;;
31390;SDS011;18022;45.492;11.548;2022-07-23T10:03:44;8.68;;;7.80;;
31390;SDS011;18022;45.492;11.548;2022-07-23T10:06:12;9.93;;;7.50;;
31390;SDS011;18022;45.492;11.548;2022-07-23T10:08:41;11.15;;;8.55;;
31390;SDS011;18022;45.492;11.548;2022-07-23T10:11:13;14.00;;;9.02;;
31390;SDS011;18022;45.492;11.548;2022-07-23T10:13:40;13.15;;;9.82;;
31390;SDS011;18022;45.492;11.548;2022-07-23T10:16:15;13.07;;;11.07;;
31390;SDS011;18022;45.492;11.548;2022-07-23T10:18:41;13.00;;;10.13;;
31390;SDS011;18022;45.492;11.548;2022-07-23T10:21:07;12.13;;;9.50;;
31390;SDS011;18022;45.492;11.548;2022-07-23T10:26:12;18.60;;;11.88;;
31390;SDS011;18022;45.492;11.548;2022-07-23T10:36:49;10.48;;;5.93;;
31390;SDS011;18022;45.492;11.548;2022-07-23T10:39:30;10.77;;;7.43;;
31390;SDS011;18022;45.492;11.548;2022-07-23T10:42:11;8.27;;;7.45;;
31390;SDS011;18022;45.492;11.548;2022-07-23T10:47:11;7.30;;;6.68;;
31390;SDS011;18022;45.492;11.548;2022-07-23T10:58:00;10.40;;;7.57;;
31390;SDS011;18022;45.492;11.548;2022-07-23T11:00:28;11.52;;;8.38;;
31390;SDS011;18022;45.492;11.548;2022-07-23T11:03:00;10.77;;;6.93;;
31390;SDS011;18022;45.492;11.548;2022-07-23T11:05:41;8.50;;;6.18;;
31390;SDS011;18022;45.492;11.548;2022-07-23T11:10:40;8.20;;;6.47;;
31390;SDS011;18022;45.492;11.548;2022-07-23T11:34:38;10.50;;;6.22;;
31390;SDS011;18022;45.492;11.548;2022-07-23T11:37:06;6.75;;;6.10;;
31390;SDS011;18022;45.492;11.548;2022-07-23T11:39:33;7.22;;;6.63;;
31390;SDS011;18022;45.492;11.548;2022-07-23T11:42:01;6.57;;;5.93;;
31390;SDS011;18022;45.492;11.548;2022-07-23T11:44:34;7.07;;;5.85;;
31390;SDS011;18022;45.492;11.548;2022-07-23T11:47:02;9.05;;;5.80;;
31390;SDS011;18022;45.492;11.548;2022-07-23T11:49:33;7.38;;;5.65;;
31390;SDS011;18022;45.492;11.548;2022-07-23T11:52:05;6.47;;;5.53;;
31390;SDS011;18022;45.492;11.548;2022-07-23T11:54:33;6.38;;;4.93;;
31390;SDS011;18022;45.492;11.548;2022-07-23T11:57:01;6.32;;;4.82;;
31390;SDS011;18022;45.492;11.548;2022-07-23T11:59:29;7.55;;;4.95;;
31390;SDS011;18022;45.492;11.548;2022-07-23T12:02:00;6.10;;;5.15;;
31390;SDS011;18022;45.492;11.548;2022-07-23T12:04:39;7.25;;;5.85;;
31390;SDS011;18022;45.492;11.548;2022-07-23T12:10:14;7.00;;;5.35;;
31390;SDS011;18022;45.492;11.548;2022-07-23T12:13:19;6.35;;;5.78;;
31390;SDS011;18022;45.492;11.548;2022-07-23T12:15:48;6.10;;;5.50;;
31390;SDS011;18022;45.492;11.548;2022-07-23T12:18:19;8.50;;;6.05;;
31390;SDS011;18022;45.492;11.548;2022-07-23T12:20:47;6.13;;;5.53;;
31390;SDS011;18022;45.492;11.548;2022-07-23T12:23:17;7.82;;;5.60;;
31390;SDS011;18022;45.492;11.548;2022-07-23T12:25:44;6.80;;;6.15;;
31390;SDS011;18022;45.492;11.548;2022-07-23T12:33:02;7.47;;;5.85;;
31390;SDS011;18022;45.492;11.548;2022-07-23T12:38:06;8.10;;;6.07;;
31390;SDS011;18022;45.492;11.548;2022-07-23T12:40:35;6.65;;;5.88;;
31390;SDS011;18022;45.492;11.548;2022-07-23T12:43:22;7.03;;;6.35;;
31390;SDS011;18022;45.492;11.548;2022-07-23T12:48:37;9.23;;;6.57;;
31390;SDS011;18022;45.492;11.548;2022-07-23T12:51:07;9.23;;;6.40;;
31390;SDS011;18022;45.492;11.548;2022-07-23T12:53:44;8.23;;;5.95;;
31390;SDS011;18022;45.492;11.548;2022-07-23T12:56:16;10.68;;;6.80;;
31390;SDS011;18022;45.492;11.548;2022-07-23T13:01:36;8.65;;;6.00;;
31390;SDS011;18022;45.492;11.548;2022-07-23T13:04:05;7.05;;;6.10;;
31390;SDS011;18022;45.492;11.548;2022-07-23T13:06:35;8.52;;;6.13;;
31390;SDS011;18022;45.492;11.548;2022-07-23T13:09:03;7.30;;;5.80;;
31390;SDS011;18022;45.492;11.548;2022-07-23T13:11:32;6.45;;;5.82;;
31390;SDS011;18022;45.492;11.548;2022-07-23T13:13:58;10.63;;;5.93;;
31390;SDS011;18022;45.492;11.548;2022-07-23T13:16:25;7.78;;;6.15;;
31390;SDS011;18022;45.492;11.548;2022-07-23T13:18:54;7.35;;;5.53;;
31390;SDS011;18022;45.492;11.548;2022-07-23T13:21:21;7.57;;;6.00;;
31390;SDS011;18022;45.492;11.548;2022-07-23T13:23:47;6.97;;;5.63;;
31390;SDS011;18022;45.492;11.548;2022-07-23T13:26:13;6.88;;;5.85;;
31390;SDS011;18022;45.492;11.548;2022-07-23T13:28:39;7.90;;;5.78;;
31390;SDS011;18022;45.492;11.548;2022-07-23T13:31:05;7.72;;;6.03;;
31390;SDS011;18022;45.492;11.548;2022-07-23T13:33:30;16.30;;;6.40;;
31390;SDS011;18022;45.492;11.548;2022-07-23T13:35:56;7.40;;;6.00;;
31390;SDS011;18022;45.492;11.548;2022-07-23T13:38:22;8.57;;;5.88;;
31390;SDS011;18022;45.492;11.548;2022-07-23T13:40:49;6.13;;;5.55;;
31390;SDS011;18022;45.492;11.548;2022-07-23T13:43:17;6.50;;;4.85;;
31390;SDS011;18022;45.492;11.548;2022-07-23T13:45:45;8.55;;;4.40;;
31390;SDS011;18022;45.492;11.548;2022-07-23T13:48:11;6.88;;;4.80;;
31390;SDS011;18022;45.492;11.548;2022-07-23T13:50:39;9.70;;;4.70;;
31390;SDS011;18022;45.492;11.548;2022-07-23T13:53:07;7.47;;;5.22;;
31390;SDS011;18022;45.492;11.548;2022-07-23T13:55:34;6.47;;;4.63;;
31390;SDS011;18022;45.492;11.548;2022-07-23T13:58:01;5.63;;;4.82;;
31390;SDS011;18022;45.492;11.548;2022-07-23T14:00:27;7.28;;;5.25;;
31390;SDS011;18022;45.492;11.548;2022-07-23T14:02:53;7.72;;;4.78;;
31390;SDS011;18022;45.492;11.548;2022-07-23T14:05:19;9.63;;;5.30;;
31390;SDS011;18022;45.492;11.548;2022-07-23T14:07:45;6.72;;;5.25;;
31390;SDS011;18022;45.492;11.548;2022-07-23T14:10:14;5.72;;;5.20;;
31390;SDS011;18022;45.492;11.548;2022-07-23T14:12:41;5.10;;;4.68;;
31390;SDS011;18022;45.492;11.548;2022-07-23T14:15:10;5.72;;;4.65;;
31390;SDS011;18022;45.492;11.548;2022-07-23T14:17:37;13.53;;;5.13;;
31390;SDS011;18022;45.492;11.548;2022-07-23T14:20:04;11.32;;;5.55;;
31390;SDS011;18022;45.492;11.548;2022-07-23T14:22:30;7.70;;;5.10;;
31390;SDS011;18022;45.492;11.548;2022-07-23T14:24:57;5.73;;;5.03;;
31390;SDS011;18022;45.492;11.548;2022-07-23T14:27:25;19.60;;;5.60;;
31390;SDS011;18022;45.492;11.548;2022-07-23T14:29:52;11.18;;;5.20;;
31390;SDS011;18022;45.492;11.548;2022-07-23T14:32:19;7.60;;;5.25;;
31390;SDS011;18022;45.492;11.548;2022-07-23T14:34:45;9.07;;;5.50;;
31390;SDS011;18022;45.492;11.548;2022-07-23T14:37:11;12.45;;;5.50;;
31390;SDS011;18022;45.492;11.548;2022-07-23T14:39:37;8.00;;;5.25;;
31390;SDS011;18022;45.492;11.548;2022-07-23T14:44:30;6.20;;;4.85;;
31390;SDS011;18022;45.492;11.548;2022-07-23T14:46:55;6.68;;;5.05;;
31390;SDS011;18022;45.492;11.548;2022-07-23T14:49:21;5.78;;;5.07;;
31390;SDS011;18022;45.492;11.548;2022-07-23T14:51:47;6.07;;;5.10;;
31390;SDS011;18022;45.492;11.548;2022-07-23T14:54:13;8.32;;;5.20;;
31390;SDS011;18022;45.492;11.548;2022-07-23T14:56:39;6.07;;;5.45;;
31390;SDS011;18022;45.492;11.548;2022-07-23T14:59:06;8.52;;;5.47;;
31390;SDS011;18022;45.492;11.548;2022-07-23T15:01:31;7.30;;;5.03;;
31390;SDS011;18022;45.492;11.548;2022-07-23T15:03:57;6.40;;;5.45;;
31390;SDS011;18022;45.492;11.548;2022-07-23T15:06:23;8.60;;;5.80;;
31390;SDS011;18022;45.492;11.548;2022-07-23T15:08:49;11.50;;;5.43;;
31390;SDS011;18022;45.492;11.548;2022-07-23T15:11:15;10.20;;;5.72;;
31390;SDS011;18022;45.492;11.548;2022-07-23T15:13:41;9.05;;;5.68;;
31390;SDS011;18022;45.492;11.548;2022-07-23T15:16:07;5.72;;;5.10;;
31390;SDS011;18022;45.492;11.548;2022-07-23T15:18:33;7.07;;;5.07;;
31390;SDS011;18022;45.492;11.548;2022-07-23T15:20:59;6.70;;;4.83;;
31390;SDS011;18022;45.492;11.548;2022-07-23T15:23:26;7.45;;;4.57;;
31390;SDS011;18022;45.492;11.548;2022-07-23T15:25:53;7.53;;;5.37;;
31390;SDS011;18022;45.492;11.548;2022-07-23T15:28:19;9.65;;;5.43;;
31390;SDS011;18022;45.492;11.548;2022-07-23T15:30:45;13.57;;;5.45;;
31390;SDS011;18022;45.492;11.548;2022-07-23T15:33:11;7.82;;;5.05;;
31390;SDS011;18022;45.492;11.548;2022-07-23T15:35:37;6.97;;;4.70;;
31390;SDS011;18022;45.492;11.548;2022-07-23T15:38:02;8.82;;;5.22;;
31390;SDS011;18022;45.492;11.548;2022-07-23T15:40:28;9.98;;;4.90;;
31390;SDS011;18022;45.492;11.548;2022-07-23T15:42:54;6.38;;;4.25;;
31390;SDS011;18022;45.492;11.548;2022-07-23T15:45:20;11.27;;;4.88;;